Time;durP1;ratioP1;P1;durP2;ratioP2;P2;SDS_P1;SDS_P2;PMS_P1;PMS_P2;Temp;Humidity;BMP_temperature;BMP_pressure;BME280_temperature;BME280_humidity;BME280_pressure;Samples;Min_cycle;Max_cycle;Signal;HPM_P1;HPM_P2
2023/08/09 00:01:27;;;;;;;10.73;5.40;;;15.50;99.90;;;;;;5025825;28;20025;-61
2023/08/09 00:03:53;;;;;;;7.57;4.53;;;15.50;99.90;;;;;;5032548;28;20025;-56
2023/08/09 00:06:18;;;;;;;14.82;5.32;;;15.50;99.90;;;;;;5031933;28;20379;-63
2023/08/09 00:08:44;;;;;;;6.68;4.57;;;15.50;99.90;;;;;;5028269;28;20030;-56
2023/08/09 00:11:11;;;;;;;13.15;4.45;;;15.50;99.90;;;;;;5030081;28;20026;-59
2023/08/09 00:13:36;;;;;;;11.30;4.28;;;15.60;99.90;;;;;;5030108;28;20055;-58
2023/08/09 00:16:02;;;;;;;9.05;4.30;;;15.60;99.90;;;;;;5024079;28;20049;-59
2023/08/09 00:18:28;;;;;;;6.93;4.38;;;15.60;99.90;;;;;;5026073;28;20029;-57
2023/08/09 00:20:53;;;;;;;8.38;4.60;;;15.60;99.90;;;;;;5028359;28;20116;-56
2023/08/09 00:23:21;;;;;;;7.50;3.67;;;15.60;99.90;;;;;;5028045;28;20030;-58
2023/08/09 00:25:46;;;;;;;6.10;3.78;;;15.60;99.90;;;;;;5027420;28;20643;-59
2023/08/09 00:28:12;;;;;;;9.35;3.78;;;15.70;99.90;;;;;;5026587;28;20033;-62
2023/08/09 00:30:37;;;;;;;7.68;3.55;;;15.70;99.90;;;;;;5026086;28;20094;-57
2023/08/09 00:33:03;;;;;;;11.15;3.35;;;15.70;99.90;;;;;;5029355;28;20041;-63
2023/08/09 00:35:30;;;;;;;6.15;3.97;;;15.80;99.90;;;;;;5028126;28;20040;-62
2023/08/09 00:37:56;;;;;;;11.23;4.63;;;15.70;99.90;;;;;;5037199;28;20033;-60
2023/08/09 00:40:21;;;;;;;7.10;3.90;;;15.80;99.90;;;;;;5027410;28;20088;-61
2023/08/09 00:42:47;;;;;;;8.48;3.80;;;15.80;99.90;;;;;;5032611;28;20029;-56
2023/08/09 00:45:12;;;;;;;7.35;3.60;;;15.80;99.90;;;;;;5030120;28;20017;-60
2023/08/09 00:47:38;;;;;;;5.32;3.58;;;15.80;99.90;;;;;;5031711;28;20506;-57
2023/08/09 00:50:06;;;;;;;7.68;4.28;;;15.80;99.90;;;;;;5029030;28;20027;-62
2023/08/09 00:52:32;;;;;;;7.57;3.97;;;15.80;99.90;;;;;;5033702;28;20025;-54
2023/08/09 00:55:00;;;;;;;7.53;3.88;;;15.80;99.90;;;;;;5034997;28;20021;-59
2023/08/09 00:57:26;;;;;;;8.30;3.85;;;15.80;99.90;;;;;;5030276;28;20042;-56
2023/08/09 00:59:52;;;;;;;7.72;3.97;;;15.80;99.90;;;;;;5034247;28;20034;-58
2023/08/09 01:02:18;;;;;;;7.93;3.85;;;15.80;99.90;;;;;;5028298;28;20035;-65
2023/08/09 01:04:44;;;;;;;16.40;5.55;;;15.80;99.90;;;;;;5030013;28;20459;-58
2023/08/09 01:07:36;;;;;;;9.05;4.57;;;15.80;99.90;;;;;;5034411;28;20549;-61
2023/08/09 01:10:13;;;;;;;6.50;4.10;;;15.80;99.90;;;;;;5030499;28;20049;-60
2023/08/09 01:12:41;;;;;;;6.28;3.78;;;15.80;99.90;;;;;;5038313;28;20053;-61
2023/08/09 01:15:09;;;;;;;7.13;4.00;;;15.70;99.90;;;;;;5034067;28;20052;-64
2023/08/09 01:17:36;;;;;;;8.68;4.75;;;15.80;99.90;;;;;;5033536;28;20109;-58
2023/08/09 01:20:10;;;;;;;6.85;4.38;;;15.80;99.90;;;;;;5032597;28;20026;-61
2023/08/09 01:22:37;;;;;;;;;;;15.80;99.90;;;;;;5033764;28;20512;-58
2023/08/09 01:25:06;;;;;;;6.68;4.32;;;15.80;99.90;;;;;;5032242;28;19917;-61
2023/08/09 01:27:33;;;;;;;7.85;4.93;;;15.80;99.90;;;;;;5034627;28;20382;-61
2023/08/09 01:29:59;;;;;;;10.23;5.00;;;15.80;99.90;;;;;;5031583;28;20442;-63
2023/08/09 01:32:25;;;;;;;8.80;4.80;;;15.90;99.90;;;;;;5026856;28;20900;-61
2023/08/09 01:34:52;;;;;;;11.25;5.57;;;15.90;99.90;;;;;;5040453;28;20440;-58
2023/08/09 01:37:26;;;;;;;9.30;5.75;;;15.80;99.90;;;;;;5033578;28;20021;-58
2023/08/09 01:39:54;;;;;;;8.77;5.28;;;15.80;99.90;;;;;;5030607;28;20402;-60
2023/08/09 01:42:20;;;;;;;9.50;4.97;;;15.80;99.90;;;;;;5031382;28;20408;-57
2023/08/09 01:44:46;;;;;;;14.15;5.75;;;15.90;99.90;;;;;;5043386;28;20037;-58
2023/08/09 01:47:13;;;;;;;9.63;5.70;;;15.90;99.90;;;;;;5030403;28;20066;-60
2023/08/09 01:49:48;;;;;;;16.63;6.63;;;15.90;99.90;;;;;;5033241;28;20060;-61
2023/08/09 01:52:15;;;;;;;14.05;6.15;;;15.90;99.90;;;;;;5036726;28;20057;-60
2023/08/09 01:54:41;;;;;;;13.10;6.43;;;15.90;99.90;;;;;;5037265;28;20044;-59
2023/08/09 01:57:07;;;;;;;11.20;6.85;;;15.90;99.90;;;;;;5034792;28;20029;-57
2023/08/09 01:59:32;;;;;;;14.07;6.90;;;15.90;99.90;;;;;;5033113;28;20033;-60
2023/08/09 02:01:58;;;;;;;19.75;7.43;;;15.90;99.90;;;;;;5030508;28;20075;-55
2023/08/09 02:04:24;;;;;;;14.80;8.57;;;15.90;99.90;;;;;;5040864;28;20082;-61
2023/08/09 02:06:49;;;;;;;13.55;6.88;;;15.90;99.90;;;;;;5031120;28;20099;-60
2023/08/09 02:09:15;;;;;;;15.85;7.75;;;15.90;99.90;;;;;;5032366;28;20049;-61
2023/08/09 02:11:40;;;;;;;13.63;7.40;;;15.90;99.90;;;;;;5033540;28;20087;-62
2023/08/09 02:14:06;;;;;;;7.90;3.58;;;15.90;99.90;;;;;;5036912;28;20034;-54
2023/08/09 02:16:32;;;;;;;2.83;2.50;;;15.60;99.90;;;;;;5030186;28;20079;-61
2023/08/09 02:18:58;;;;;;;5.82;2.90;;;15.40;99.90;;;;;;5037016;28;20056;-64
2023/08/09 02:21:23;;;;;;;4.53;2.75;;;15.20;99.90;;;;;;5033897;28;20072;-59
2023/08/09 02:23:49;;;;;;;3.30;2.85;;;15.20;99.90;;;;;;5032752;28;20021;-63
2023/08/09 02:26:15;;;;;;;5.38;3.15;;;15.10;99.90;;;;;;5031758;28;20135;-58
2023/08/09 02:28:41;;;;;;;11.25;3.60;;;15.10;99.90;;;;;;5031305;28;20017;-61
2023/08/09 02:31:08;;;;;;;4.07;3.25;;;15.00;99.90;;;;;;5030515;28;20496;-60
2023/08/09 02:33:34;;;;;;;5.78;3.75;;;15.00;99.90;;;;;;5029739;28;20187;-63
2023/08/09 02:36:02;;;;;;;5.75;3.83;;;15.00;99.90;;;;;;5027860;28;20026;-61
2023/08/09 02:38:28;;;;;;;4.78;3.75;;;14.90;99.90;;;;;;5043948;28;20064;-62
2023/08/09 02:40:55;;;;;;;6.50;4.72;;;14.90;99.90;;;;;;5031757;28;20488;-62
2023/08/09 02:43:23;;;;;;;11.45;5.15;;;14.90;99.90;;;;;;5032762;28;20123;-59
2023/08/09 02:45:50;;;;;;;11.35;6.20;;;14.90;99.90;;;;;;5025961;28;20029;-61
2023/08/09 02:48:15;;;;;;;8.52;6.07;;;14.80;99.90;;;;;;5028552;28;20432;-64
2023/08/09 02:50:42;;;;;;;8.40;5.97;;;14.80;99.90;;;;;;5032214;28;20037;-60
2023/08/09 02:53:08;;;;;;;11.43;6.20;;;14.80;99.90;;;;;;5034506;28;20025;-62
2023/08/09 02:55:34;;;;;;;9.13;6.55;;;14.80;99.90;;;;;;5027953;28;20032;-62
2023/08/09 02:58:03;;;;;;;12.20;6.80;;;14.90;99.90;;;;;;5031200;28;20725;-61
2023/08/09 03:00:29;;;;;;;10.32;7.18;;;14.90;99.90;;;;;;5031880;28;20088;-61
2023/08/09 03:02:54;;;;;;;13.07;7.60;;;14.90;99.90;;;;;;5037066;28;20022;-59
2023/08/09 03:05:20;;;;;;;11.65;7.63;;;14.90;99.90;;;;;;5030128;28;20108;-58
2023/08/09 03:07:45;;;;;;;11.50;6.25;;;14.80;99.90;;;;;;5038861;28;20048;-60
2023/08/09 03:10:11;;;;;;;9.85;6.50;;;14.80;99.90;;;;;;5031378;28;20063;-61
2023/08/09 03:12:37;;;;;;;10.00;6.82;;;14.80;99.90;;;;;;5036018;28;20026;-60
2023/08/09 03:15:04;;;;;;;8.20;6.55;;;14.80;99.90;;;;;;5035301;28;20041;-63
2023/08/09 03:17:30;;;;;;;10.63;7.25;;;14.80;99.90;;;;;;5028471;28;20033;-59
2023/08/09 03:19:56;;;;;;;11.32;6.22;;;14.80;99.90;;;;;;5033924;28;20017;-58
2023/08/09 03:22:23;;;;;;;12.25;8.10;;;14.80;99.90;;;;;;5040905;28;20032;-60
2023/08/09 03:24:49;;;;;;;9.80;7.15;;;14.80;99.90;;;;;;5029558;28;20087;-57
2023/08/09 03:27:14;;;;;;;12.57;7.65;;;14.80;99.90;;;;;;5030196;28;20036;-58
2023/08/09 03:29:40;;;;;;;9.75;6.57;;;14.70;99.90;;;;;;5033751;28;20025;-58
2023/08/09 03:32:05;;;;;;;15.23;7.35;;;14.70;99.90;;;;;;5041323;28;20033;-59
2023/08/09 03:34:31;;;;;;;14.85;8.00;;;14.70;99.90;;;;;;5034376;28;20115;-57
2023/08/09 03:36:56;;;;;;;14.05;8.27;;;14.70;99.90;;;;;;5027825;28;20030;-62
2023/08/09 03:39:22;;;;;;;11.88;7.43;;;14.70;99.90;;;;;;5033699;28;20037;-59
2023/08/09 03:41:47;;;;;;;13.52;7.10;;;14.70;99.90;;;;;;5027568;28;20034;-57
2023/08/09 03:44:13;;;;;;;11.23;6.78;;;14.70;99.90;;;;;;5025563;28;20037;-63
2023/08/09 03:46:40;;;;;;;10.40;6.50;;;14.70;99.90;;;;;;5030387;28;20028;-58
2023/08/09 03:49:05;;;;;;;13.63;7.25;;;14.70;99.90;;;;;;5032974;28;20505;-59
2023/08/09 03:51:31;;;;;;;12.05;6.93;;;14.70;99.90;;;;;;5038984;28;20044;-59
2023/08/09 03:53:56;;;;;;;10.45;6.72;;;14.70;99.90;;;;;;5026768;28;20029;-62
2023/08/09 03:56:22;;;;;;;12.30;6.95;;;14.70;99.90;;;;;;5029829;28;20084;-56
2023/08/09 03:58:47;;;;;;;12.75;7.28;;;14.70;99.90;;;;;;5035350;28;20025;-62
2023/08/09 04:01:13;;;;;;;10.40;7.03;;;14.70;99.90;;;;;;5040279;28;20135;-60
2023/08/09 04:03:39;;;;;;;10.23;7.32;;;14.70;99.90;;;;;;5026461;28;20030;-63
2023/08/09 04:06:05;;;;;;;9.68;6.40;;;14.70;99.90;;;;;;5028191;28;20020;-60
2023/08/09 04:08:31;;;;;;;15.43;7.05;;;14.60;99.90;;;;;;5033618;28;20028;-59
2023/08/09 04:10:58;;;;;;;11.90;7.90;;;14.70;99.90;;;;;;5051293;28;20056;-57
2023/08/09 04:13:24;;;;;;;16.52;7.90;;;14.70;99.90;;;;;;5035557;28;20064;-55
2023/08/09 04:15:49;;;;;;;13.02;7.43;;;14.70;99.90;;;;;;5033570;28;20029;-58
2023/08/09 04:18:15;;;;;;;13.55;8.52;;;14.70;99.90;;;;;;5030563;28;20029;-61
2023/08/09 04:20:41;;;;;;;12.75;8.48;;;14.60;99.90;;;;;;5039282;28;20025;-59
2023/08/09 04:23:08;;;;;;;15.20;8.50;;;14.70;99.90;;;;;;5031888;28;20026;-63
2023/08/09 04:25:33;;;;;;;13.55;9.10;;;14.70;99.90;;;;;;5031290;28;20366;-59
2023/08/09 04:27:59;;;;;;;17.17;8.85;;;14.70;99.90;;;;;;5036477;28;20018;-61
2023/08/09 04:30:25;;;;;;;14.82;7.97;;;14.70;99.90;;;;;;5024638;28;20041;-60
2023/08/09 04:32:52;;;;;;;14.00;8.57;;;14.70;99.90;;;;;;5027502;28;20044;-58
2023/08/09 04:35:18;;;;;;;13.50;8.32;;;14.80;99.90;;;;;;5037461;28;20585;-56
2023/08/09 04:37:44;;;;;;;14.63;8.13;;;14.70;99.90;;;;;;5041166;28;20032;-59
2023/08/09 04:40:10;;;;;;;14.18;7.57;;;14.70;99.90;;;;;;5029381;28;20428;-56
2023/08/09 04:42:40;;;;;;;14.60;7.72;;;14.70;99.90;;;;;;5033299;28;20034;-61
2023/08/09 04:45:10;;;;;;;10.75;7.22;;;14.70;99.90;;;;;;5028574;28;20405;-62
2023/08/09 04:47:36;;;;;;;12.50;7.05;;;14.80;99.90;;;;;;5028781;28;20030;-59
2023/08/09 04:50:03;;;;;;;15.55;7.50;;;14.80;99.90;;;;;;5036242;28;21010;-56
2023/08/09 04:52:30;;;;;;;11.30;6.78;;;14.70;99.90;;;;;;5032823;28;20037;-58
2023/08/09 04:54:56;;;;;;;10.52;6.20;;;14.70;99.90;;;;;;5034784;28;20037;-56
2023/08/09 04:57:21;;;;;;;9.40;6.05;;;14.70;99.90;;;;;;5034353;28;20030;-61
2023/08/09 04:59:47;;;;;;;12.73;6.20;;;14.80;99.90;;;;;;5030348;28;20084;-61
2023/08/09 05:02:12;;;;;;;9.68;6.25;;;14.70;99.90;;;;;;5041570;28;20055;-57
2023/08/09 05:04:38;;;;;;;12.15;6.07;;;14.80;99.90;;;;;;5035326;28;20100;-59
2023/08/09 05:07:04;;;;;;;7.82;5.60;;;14.80;99.90;;;;;;5035670;28;20014;-63
2023/08/09 05:09:30;;;;;;;11.35;6.32;;;14.80;99.90;;;;;;5029997;28;20025;-60
2023/08/09 05:11:56;;;;;;;12.82;7.10;;;14.80;99.90;;;;;;5030345;28;20025;-60
2023/08/09 05:14:22;;;;;;;11.07;7.10;;;14.80;99.90;;;;;;5033428;28;20493;-61
2023/08/09 05:16:48;;;;;;;9.18;5.95;;;14.80;99.90;;;;;;5030915;28;20028;-61
2023/08/09 05:19:13;;;;;;;13.63;6.65;;;14.80;99.90;;;;;;5032249;28;20087;-60
2023/08/09 05:21:39;;;;;;;12.98;6.90;;;14.90;99.90;;;;;;5029976;28;20029;-58
2023/08/09 05:24:06;;;;;;;11.88;5.93;;;14.90;99.90;;;;;;5046624;28;20071;-57
2023/08/09 05:26:31;;;;;;;14.35;6.57;;;14.90;99.90;;;;;;5032111;28;20548;-57
2023/08/09 05:28:57;;;;;;;16.58;6.20;;;14.90;99.90;;;;;;5032970;28;20056;-56
2023/08/09 05:31:22;;;;;;;9.50;5.75;;;15.00;99.90;;;;;;5031257;28;20048;-60
2023/08/09 05:33:48;;;;;;;6.72;4.53;;;14.90;99.90;;;;;;5033257;28;20033;-58
2023/08/09 05:36:14;;;;;;;6.38;4.60;;;14.90;99.90;;;;;;5033152;28;20115;-58
2023/08/09 05:38:39;;;;;;;8.18;4.38;;;14.90;99.90;;;;;;5037186;28;20091;-61
2023/08/09 05:41:05;;;;;;;10.85;5.00;;;15.00;99.90;;;;;;5034812;28;20034;-58
2023/08/09 05:43:30;;;;;;;7.22;5.22;;;14.90;99.90;;;;;;5032169;28;20101;-59
2023/08/09 05:45:56;;;;;;;8.70;5.10;;;15.00;99.90;;;;;;5031502;28;20101;-59
2023/08/09 05:48:21;;;;;;;6.43;4.70;;;14.80;99.90;;;;;;5036232;28;20032;-62
2023/08/09 05:50:47;;;;;;;8.38;5.38;;;14.90;99.90;;;;;;5034832;28;20655;-61
2023/08/09 05:53:12;;;;;;;6.65;5.07;;;14.90;99.90;;;;;;5037631;28;20056;-62
2023/08/09 05:55:39;;;;;;;9.07;5.95;;;15.00;99.90;;;;;;5028516;28;20064;-60
2023/08/09 05:58:05;;;;;;;8.18;5.75;;;15.00;99.90;;;;;;5035256;28;20021;-58
2023/08/09 06:00:31;;;;;;;15.30;6.40;;;15.00;99.90;;;;;;5029179;28;20391;-58
2023/08/09 06:02:57;;;;;;;8.52;5.22;;;15.00;99.90;;;;;;5030940;28;20108;-56
2023/08/09 06:05:26;;;;;;;9.90;6.53;;;15.10;99.90;;;;;;5029690;28;20022;-56
2023/08/09 06:07:52;;;;;;;11.07;6.95;;;15.00;99.90;;;;;;5027915;28;20028;-56
2023/08/09 06:10:20;;;;;;;8.15;5.68;;;15.00;99.90;;;;;;5031562;28;20108;-56
2023/08/09 06:12:45;;;;;;;8.70;5.57;;;15.10;99.90;;;;;;5037500;28;20017;-54
2023/08/09 06:15:11;;;;;;;8.50;6.00;;;15.10;99.90;;;;;;5029025;28;20040;-59
2023/08/09 06:17:37;;;;;;;9.68;6.53;;;15.20;99.90;;;;;;5033442;28;20033;-54
2023/08/09 06:20:06;;;;;;;12.98;6.45;;;15.20;99.90;;;;;;5035688;28;20064;-58
2023/08/09 06:22:32;;;;;;;9.32;4.43;;;15.30;99.90;;;;;;5034697;28;20493;-58
2023/08/09 06:24:58;;;;;;;5.80;3.55;;;15.10;99.90;;;;;;5046753;28;20029;-60
2023/08/09 06:27:23;;;;;;;4.55;3.17;;;15.10;99.90;;;;;;5033565;28;20521;-61
2023/08/09 06:29:49;;;;;;;6.10;3.90;;;15.10;99.90;;;;;;5033978;28;20029;-59
2023/08/09 06:32:14;;;;;;;4.57;3.75;;;15.30;99.90;;;;;;5031037;28;20044;-57
2023/08/09 06:34:40;;;;;;;5.32;4.57;;;15.30;99.90;;;;;;5029280;28;20489;-59
2023/08/09 06:37:06;;;;;;;6.40;4.47;;;15.40;99.90;;;;;;5026051;28;20421;-58
2023/08/09 06:39:33;;;;;;;5.65;4.50;;;15.50;99.90;;;;;;5032229;28;20520;-58
2023/08/09 06:41:59;;;;;;;5.00;4.50;;;15.50;99.90;;;;;;5033992;28;20021;-54
2023/08/09 06:44:25;;;;;;;5.75;3.90;;;15.50;99.90;;;;;;5033329;28;20040;-59
2023/08/09 06:46:51;;;;;;;5.47;3.72;;;15.50;99.90;;;;;;5030793;28;20041;-59
2023/08/09 06:49:17;;;;;;;6.35;4.15;;;15.50;99.90;;;;;;5033419;28;20017;-59
2023/08/09 06:51:43;;;;;;;5.88;4.40;;;15.50;99.90;;;;;;5032760;28;20032;-61
2023/08/09 06:54:08;;;;;;;5.40;4.57;;;15.50;99.90;;;;;;5036344;28;20037;-55
2023/08/09 06:56:35;;;;;;;4.75;3.67;;;15.60;99.90;;;;;;5032048;28;20064;-57
2023/08/09 06:59:01;;;;;;;5.88;4.45;;;15.60;99.90;;;;;;5036940;28;20467;-54
2023/08/09 07:01:26;;;;;;;7.57;5.63;;;15.60;99.90;;;;;;5026250;28;20112;-59
2023/08/09 07:03:53;;;;;;;7.40;4.97;;;15.50;99.90;;;;;;5026475;28;20548;-62
2023/08/09 07:06:18;;;;;;;7.65;5.30;;;15.50;99.90;;;;;;5025076;28;20482;-60
2023/08/09 07:08:44;;;;;;;6.57;4.53;;;15.50;99.90;;;;;;5033851;28;20099;-59
2023/08/09 07:11:09;;;;;;;7.30;4.63;;;15.50;99.90;;;;;;5035474;28;20024;-59
2023/08/09 07:13:35;;;;;;;8.73;4.22;;;15.50;99.90;;;;;;5034845;28;20037;-61
2023/08/09 07:16:00;;;;;;;5.05;3.50;;;15.50;99.90;;;;;;5028137;28;20087;-57
2023/08/09 07:18:26;;;;;;;7.25;4.93;;;15.40;99.90;;;;;;5029127;28;20032;-59
2023/08/09 07:20:51;;;;;;;5.30;4.13;;;15.40;99.90;;;;;;5036295;28;20627;-62
2023/08/09 07:23:17;;;;;;;4.55;3.60;;;15.40;99.90;;;;;;5037580;28;20029;-59
2023/08/09 07:25:42;;;;;;;5.38;4.32;;;15.30;99.90;;;;;;5030605;28;20021;-61
2023/08/09 07:28:08;;;;;;;5.53;4.40;;;15.40;99.90;;;;;;5025390;28;20029;-61
2023/08/09 07:30:34;;;;;;;8.73;4.80;;;15.50;99.90;;;;;;5029285;28;20036;-62
2023/08/09 07:32:59;;;;;;;6.18;4.88;;;15.60;99.90;;;;;;5028274;28;20105;-63
2023/08/09 07:35:25;;;;;;;4.75;4.18;;;15.70;99.90;;;;;;5031702;28;20497;-64
2023/08/09 07:37:51;;;;;;;4.72;4.22;;;15.80;99.90;;;;;;5033446;28;20022;-64
2023/08/09 07:40:16;;;;;;;5.55;4.22;;;15.80;99.90;;;;;;5032211;28;20452;-62
2023/08/09 07:42:42;;;;;;;8.32;5.05;;;15.90;99.90;;;;;;5029206;28;20077;-63
2023/08/09 07:45:09;;;;;;;6.25;4.28;;;15.80;99.90;;;;;;5029362;28;20033;-62
2023/08/09 07:47:35;;;;;;;6.10;3.85;;;15.80;99.90;;;;;;5024206;28;20398;-62
2023/08/09 07:50:00;;;;;;;4.72;3.97;;;15.80;99.90;;;;;;5024165;28;20032;-58
2023/08/09 07:52:27;;;;;;;4.40;3.78;;;15.90;99.90;;;;;;5020365;28;20025;-60
2023/08/09 07:54:52;;;;;;;7.50;5.63;;;15.90;99.90;;;;;;5024637;28;20033;-61
2023/08/09 07:57:18;;;;;;;3.97;3.45;;;16.00;99.90;;;;;;5024308;28;20022;-59
2023/08/09 07:59:44;;;;;;;4.72;3.38;;;16.10;99.90;;;;;;5025409;28;20605;-58
2023/08/09 08:02:10;;;;;;;6.70;3.78;;;16.10;99.90;;;;;;5029244;28;20026;-61
2023/08/09 08:04:36;;;;;;;5.65;4.38;;;16.30;99.90;;;;;;5026756;28;20071;-59
2023/08/09 08:07:03;;;;;;;5.00;3.92;;;16.40;99.90;;;;;;5025491;28;20037;-60
2023/08/09 08:09:32;;;;;;;4.82;3.72;;;16.50;99.90;;;;;;5026140;28;20481;-61
2023/08/09 08:11:58;;;;;;;4.30;3.60;;;16.60;99.90;;;;;;5032933;28;20101;-60
2023/08/09 08:14:24;;;;;;;4.32;3.30;;;16.60;99.90;;;;;;5030035;28;20103;-59
2023/08/09 08:16:50;;;;;;;6.82;4.38;;;16.70;99.90;;;;;;5031181;28;20029;-59
2023/08/09 08:19:15;;;;;;;7.13;4.57;;;16.70;99.90;;;;;;5030368;28;20501;-59
2023/08/09 08:21:41;;;;;;;6.55;4.03;;;16.70;99.90;;;;;;5032844;28;20077;-57
2023/08/09 08:24:08;;;;;;;5.82;4.55;;;16.70;99.90;;;;;;5031242;28;20100;-54
2023/08/09 08:26:34;;;;;;;8.85;5.50;;;16.80;99.90;;;;;;5033691;28;20021;-60
2023/08/09 08:29:01;;;;;;;6.32;5.00;;;16.70;99.90;;;;;;5032590;28;20033;-59
2023/08/09 08:31:27;;;;;;;7.20;4.57;;;16.60;99.90;;;;;;5029062;28;20029;-62
2023/08/09 08:33:54;;;;;;;7.95;4.90;;;16.60;99.90;;;;;;5031781;28;20099;-62
2023/08/09 08:36:20;;;;;;;10.77;4.15;;;16.60;99.90;;;;;;5034445;28;20029;-58
2023/08/09 08:38:46;;;;;;;7.43;4.22;;;16.50;99.90;;;;;;5031514;28;20079;-55
2023/08/09 08:41:11;;;;;;;4.30;3.72;;;16.50;99.90;;;;;;5047354;28;20413;-59
2023/08/09 08:43:37;;;;;;;5.47;3.60;;;16.50;99.90;;;;;;5031715;28;20029;-60
2023/08/09 08:46:04;;;;;;;5.70;3.78;;;16.60;99.90;;;;;;5034970;28;20036;-61
2023/08/09 08:48:33;;;;;;;4.32;3.80;;;16.50;99.90;;;;;;5028679;28;20444;-58
2023/08/09 08:51:01;;;;;;;6.40;5.00;;;16.50;99.90;;;;;;5024877;28;20087;-61
2023/08/09 08:53:28;;;;;;;7.35;4.50;;;16.50;99.90;;;;;;5027356;28;20026;-62
2023/08/09 08:55:54;;;;;;;5.72;4.25;;;16.50;99.90;;;;;;5030076;28;20033;-62
2023/08/09 08:58:20;;;;;;;4.10;3.28;;;16.60;99.90;;;;;;5026742;28;20505;-62
2023/08/09 09:00:46;;;;;;;7.78;3.55;;;16.70;99.90;;;;;;5029050;28;20493;-59
2023/08/09 09:03:13;;;;;;;6.55;3.20;;;16.90;99.90;;;;;;5030416;28;20103;-62
2023/08/09 09:05:39;;;;;;;2.80;2.45;;;16.90;99.90;;;;;;5028326;28;20022;-59
2023/08/09 09:08:05;;;;;;;4.68;2.95;;;17.00;99.90;;;;;;5029249;28;20040;-58
2023/08/09 09:10:30;;;;;;;4.60;2.75;;;17.10;99.90;;;;;;5027334;28;20030;-60
2023/08/09 09:12:56;;;;;;;4.22;3.00;;;17.20;99.90;;;;;;5026539;28;20413;-62
2023/08/09 09:15:22;;;;;;;5.70;3.17;;;17.40;99.90;;;;;;5028582;28;20039;-60
2023/08/09 09:17:49;;;;;;;5.38;2.80;;;17.50;99.90;;;;;;5020713;28;20033;-57
2023/08/09 09:20:23;;;;;;;2.50;2.25;;;17.70;99.90;;;;;;5027786;28;20029;-64
2023/08/09 09:22:50;;;;;;;3.50;2.50;;;17.70;99.90;;;;;;5025205;28;20112;-64
2023/08/09 09:25:17;;;;;;;4.65;2.60;;;17.80;99.90;;;;;;5025165;28;20111;-56
2023/08/09 09:27:46;;;;;;;3.67;2.78;;;18.00;99.90;;;;;;5030115;28;20433;-58
2023/08/09 09:30:13;;;;;;;7.65;4.32;;;18.10;99.90;;;;;;5027435;28;20030;-62
2023/08/09 09:32:49;;;;;;;6.05;3.08;;;18.20;99.90;;;;;;5032328;28;20535;-60
2023/08/09 09:35:19;;;;;;;3.20;2.90;;;18.40;99.90;;;;;;5034102;28;20025;-62
2023/08/09 09:37:52;;;;;;;4.53;2.80;;;18.50;99.90;;;;;;5028654;28;20021;-62
2023/08/09 09:40:35;;;;;;;3.72;2.33;;;18.80;99.90;;;;;;5027933;28;20057;-64
2023/08/09 09:43:02;;;;;;;3.33;2.72;;;18.80;99.90;;;;;;5030372;28;20068;-60
2023/08/09 09:45:29;;;;;;;4.93;3.22;;;18.70;99.90;;;;;;5033576;28;21190;-63
2023/08/09 09:47:56;;;;;;;4.07;3.08;;;18.70;99.90;;;;;;5035818;28;20400;-59
2023/08/09 09:50:24;;;;;;;2.72;2.03;;;18.70;99.90;;;;;;5029826;28;20025;-60
2023/08/09 09:52:50;;;;;;;6.13;3.00;;;18.50;99.90;;;;;;5030414;28;20026;-58
2023/08/09 09:55:18;;;;;;;7.80;2.65;;;18.50;99.90;;;;;;5026824;28;20517;-58
2023/08/09 09:57:44;;;;;;;5.88;2.95;;;18.40;99.90;;;;;;5028932;28;20036;-56
2023/08/09 10:00:20;;;;;;;5.13;2.97;;;18.30;99.90;;;;;;5030734;28;20401;-59
2023/08/09 10:02:47;;;;;;;2.97;2.40;;;18.40;99.90;;;;;;5028013;28;20029;-56
2023/08/09 10:05:19;;;;;;;4.78;2.67;;;18.50;99.90;;;;;;5030630;28;20071;-55
2023/08/09 10:07:46;;;;;;;4.55;2.47;;;18.50;99.90;;;;;;5026667;28;20032;-59
2023/08/09 10:10:12;;;;;;;4.90;2.78;;;18.50;99.90;;;;;;5030832;28;20033;-55
2023/08/09 10:12:41;;;;;;;3.45;2.78;;;18.60;99.90;;;;;;5030990;28;20119;-56
2023/08/09 10:15:08;;;;;;;4.85;2.78;;;18.90;99.90;;;;;;5031563;28;22268;-60
2023/08/09 10:17:34;;;;;;;3.22;2.60;;;19.30;99.90;;;;;;5034751;28;20075;-58
2023/08/09 10:20:04;;;;;;;5.75;2.55;;;19.70;99.90;;;;;;5027707;28;20033;-55
2023/08/09 10:22:30;;;;;;;5.15;3.03;;;20.20;99.90;;;;;;5032917;28;20389;-57
2023/08/09 10:24:58;;;;;;;3.53;2.47;;;20.60;99.90;;;;;;5030892;28;20037;-58
2023/08/09 10:27:50;;;;;;;4.13;2.33;;;20.50;99.90;;;;;;5034100;28;20021;-57
2023/08/09 10:30:17;;;;;;;4.68;2.38;;;20.50;99.90;;;;;;5036221;28;20022;-56
2023/08/09 10:32:56;;;;;;;5.90;3.72;;;20.40;99.90;;;;;;5033102;28;20014;-59
2023/08/09 10:35:59;;;;;;;4.50;3.28;;;20.50;99.90;;;;;;5033024;28;20119;-58
2023/08/09 10:38:30;;;;;;;8.00;3.75;;;20.60;99.90;;;;;;5032253;28;20426;-57
2023/08/09 10:40:55;;;;;;;5.60;3.70;;;20.70;99.90;;;;;;5036025;28;20032;-53
2023/08/09 10:43:24;;;;;;;4.80;3.80;;;20.90;99.90;;;;;;5033094;28;20100;-58
2023/08/09 10:45:53;;;;;;;4.38;3.38;;;20.80;99.90;;;;;;5031467;28;20014;-55
2023/08/09 10:48:23;;;;;;;10.57;4.10;;;21.10;99.90;;;;;;5034229;28;20017;-58
2023/08/09 10:51:07;;;;;;;3.47;3.17;;;21.20;99.90;;;;;;5033210;28;20021;-55
2023/08/09 10:53:50;;;;;;;5.73;3.87;;;21.30;99.90;;;;;;5038333;28;20028;-53
2023/08/09 10:56:30;;;;;;;4.93;2.92;;;21.30;99.90;;;;;;5036285;28;20082;-57
2023/08/09 10:59:04;;;;;;;4.47;3.10;;;21.20;99.90;;;;;;5027913;28;20025;-58
2023/08/09 11:01:30;;;;;;;6.43;3.05;;;21.20;99.90;;;;;;5039613;28;20033;-53
2023/08/09 11:03:56;;;;;;;5.82;3.83;;;21.10;99.90;;;;;;5030719;28;20025;-60
2023/08/09 11:06:35;;;;;;;5.68;3.70;;;21.00;99.90;;;;;;5036004;28;20060;-55
2023/08/09 11:09:09;;;;;;;6.43;3.22;;;21.00;99.90;;;;;;5031159;28;20367;-58
2023/08/09 11:11:35;;;;;;;6.33;3.37;;;21.10;99.90;;;;;;5039328;28;20076;-57
2023/08/09 11:14:02;;;;;;;6.15;4.07;;;21.10;99.90;;;;;;5031415;28;20029;-54
2023/08/09 11:16:28;;;;;;;5.30;4.68;;;21.00;99.90;;;;;;5038523;28;20112;-57
2023/08/09 11:19:07;;;;;;;5.82;4.35;;;20.80;99.90;;;;;;5032532;28;20100;-56
2023/08/09 11:21:44;;;;;;;6.97;3.83;;;20.80;99.90;;;;;;5030371;28;20071;-56
2023/08/09 11:24:11;;;;;;;5.60;3.65;;;20.80;99.90;;;;;;5033043;28;20021;-60
2023/08/09 11:26:58;;;;;;;6.25;4.15;;;20.90;99.90;;;;;;5036070;28;20026;-57
2023/08/09 11:29:26;;;;;;;7.30;4.00;;;21.00;99.90;;;;;;5036693;28;20112;-57
2023/08/09 11:31:53;;;;;;;7.38;4.03;;;21.00;99.90;;;;;;5026231;28;20033;-59
2023/08/09 11:34:20;;;;;;;7.32;4.25;;;21.30;99.90;;;;;;5031211;28;20120;-55
2023/08/09 11:36:48;;;;;;;5.65;3.70;;;21.10;99.90;;;;;;5029391;28;20409;-56
2023/08/09 11:39:14;;;;;;;9.07;4.53;;;21.20;99.90;;;;;;5034090;28;20032;-59
2023/08/09 11:41:46;;;;;;;4.13;3.35;;;21.30;99.90;;;;;;5034816;28;20021;-59
2023/08/09 11:44:14;;;;;;;5.07;3.63;;;21.20;99.90;;;;;;5031787;28;20025;-55
2023/08/09 11:46:42;;;;;;;4.25;3.85;;;21.40;99.90;;;;;;5028105;28;20029;-59
2023/08/09 11:49:07;;;;;;;5.45;3.92;;;21.60;99.90;;;;;;5029828;28;20053;-57
2023/08/09 11:51:35;;;;;;;4.72;3.65;;;21.60;99.90;;;;;;5031287;28;20049;-58
2023/08/09 11:54:01;;;;;;;4.05;3.60;;;21.60;99.90;;;;;;5031023;28;20037;-58
2023/08/09 11:56:31;;;;;;;4.95;4.15;;;21.40;99.90;;;;;;5031315;28;20040;-58
2023/08/09 11:59:00;;;;;;;7.93;4.03;;;21.40;99.90;;;;;;5036228;28;20053;-57
2023/08/09 12:01:27;;;;;;;5.30;3.70;;;21.40;99.90;;;;;;5028793;28;20056;-55
2023/08/09 12:03:55;;;;;;;7.90;4.07;;;21.80;99.90;;;;;;5030514;28;20100;-56
2023/08/09 12:06:39;;;;;;;6.72;3.35;;;21.70;99.90;;;;;;5029706;28;20029;-56
2023/08/09 12:09:35;;;;;;;5.85;3.95;;;21.70;99.90;;;;;;5035867;28;20041;-59
2023/08/09 12:12:18;;;;;;;4.97;3.88;;;21.70;99.90;;;;;;5030288;28;20036;-59
2023/08/09 12:14:47;;;;;;;5.60;2.83;;;22.00;99.90;;;;;;5026536;28;20571;-60
2023/08/09 12:17:26;;;;;;;3.15;2.67;;;22.10;99.90;;;;;;5034283;28;20055;-58
2023/08/09 12:19:58;;;;;;;8.75;3.40;;;22.30;99.90;;;;;;5030353;28;20029;-59
2023/08/09 12:22:28;;;;;;;4.80;2.95;;;22.30;99.90;;;;;;5034018;28;20032;-59
2023/08/09 12:24:55;;;;;;;4.43;3.10;;;22.50;99.90;;;;;;5029785;28;20112;-59
2023/08/09 12:27:21;;;;;;;4.95;2.83;;;22.90;99.90;;;;;;5031646;28;20028;-59
2023/08/09 12:29:47;;;;;;;3.90;3.13;;;23.20;99.90;;;;;;5029624;28;20385;-56
2023/08/09 12:32:13;;;;;;;4.78;3.15;;;23.50;99.90;;;;;;5029103;28;20033;-55
2023/08/09 12:34:38;;;;;;;5.18;2.78;;;23.80;99.90;;;;;;5027196;28;20048;-55
2023/08/09 12:37:05;;;;;;;4.00;2.60;;;23.90;99.90;;;;;;5025789;28;20103;-59
2023/08/09 12:39:30;;;;;;;4.85;2.28;;;24.10;99.90;;;;;;5030502;28;20057;-59
2023/08/09 12:41:56;;;;;;;3.53;1.92;;;24.30;99.90;;;;;;5032924;28;20098;-59
2023/08/09 12:44:23;;;;;;;5.95;3.08;;;24.60;99.90;;;;;;5030502;28;20104;-61
2023/08/09 12:46:49;;;;;;;3.20;2.20;;;24.40;99.90;;;;;;5029454;28;20030;-58